sensor_id;sensor_type;location;lat;lon;timestamp;pressure;altitude;pressure_sealevel;temperature;humidity
68169;BME280;54981;50.206;15.978;2023-02-10T00:02:24;100583.03;;;-3.68;100.00
68169;BME280;54981;50.206;15.978;2023-02-10T00:06:26;100583.25;;;-3.91;100.00
68169;BME280;54981;50.206;15.978;2023-02-10T00:10:27;100579.44;;;-4.02;100.00
68169;BME280;54981;50.206;15.978;2023-02-10T00:14:28;100577.75;;;-4.01;100.00
68169;BME280;54981;50.206;15.978;2023-02-10T00:18:29;100581.81;;;-4.10;100.00
68169;BME280;54981;50.206;15.978;2023-02-10T00:22:31;100583.66;;;-5.13;100.00
68169;BME280;54981;50.206;15.978;2023-02-10T00:26:31;100579.69;;;-5.03;100.00
68169;BME280;54981;50.206;15.978;2023-02-10T00:30:31;100583.84;;;-4.82;100.00
68169;BME280;54981;50.206;15.978;2023-02-10T00:34:32;100593.50;;;-5.04;100.00
68169;BME280;54981;50.206;15.978;2023-02-10T00:38:32;100597.47;;;-4.89;100.00
68169;BME280;54981;50.206;15.978;2023-02-10T00:42:32;100604.41;;;-4.88;100.00
68169;BME280;54981;50.206;15.978;2023-02-10T00:46:33;100599.44;;;-4.82;100.00
68169;BME280;54981;50.206;15.978;2023-02-10T00:50:33;100604.41;;;-4.88;100.00
68169;BME280;54981;50.206;15.978;2023-02-10T00:54:34;100604.38;;;-4.90;100.00
68169;BME280;54981;50.206;15.978;2023-02-10T00:58:35;100605.31;;;-4.88;100.00
68169;BME280;54981;50.206;15.978;2023-02-10T01:02:35;100594.78;;;-4.91;100.00
68169;BME280;54981;50.206;15.978;2023-02-10T01:06:36;100595.38;;;-5.00;100.00
68169;BME280;54981;50.206;15.978;2023-02-10T01:10:36;100604.84;;;-5.26;100.00
68169;BME280;54981;50.206;15.978;2023-02-10T01:14:36;100602.38;;;-5.47;100.00
68169;BME280;54981;50.206;15.978;2023-02-10T01:18:38;100614.72;;;-5.64;100.00
68169;BME280;54981;50.206;15.978;2023-02-10T01:22:38;100607.66;;;-5.44;100.00
68169;BME280;54981;50.206;15.978;2023-02-10T01:26:38;100594.41;;;-5.27;100.00
68169;BME280;54981;50.206;15.978;2023-02-10T01:30:39;100595.63;;;-5.42;100.00
68169;BME280;54981;50.206;15.978;2023-02-10T01:34:39;100591.09;;;-5.71;100.00
68169;BME280;54981;50.206;15.978;2023-02-10T01:38:40;100584.88;;;-5.76;100.00
68169;BME280;54981;50.206;15.978;2023-02-10T01:42:41;100583.31;;;-5.71;100.00
68169;BME280;54981;50.206;15.978;2023-02-10T01:46:47;100584.47;;;-5.63;100.00
68169;BME280;54981;50.206;15.978;2023-02-10T01:50:53;100572.41;;;-5.63;100.00
68169;BME280;54981;50.206;15.978;2023-02-10T01:55:02;100571.94;;;-5.51;100.00
68169;BME280;54981;50.206;15.978;2023-02-10T01:59:03;100572.34;;;-5.64;100.00
68169;BME280;54981;50.206;15.978;2023-02-10T02:03:04;100572.88;;;-5.97;100.00
68169;BME280;54981;50.206;15.978;2023-02-10T02:07:05;100566.03;;;-5.95;100.00
68169;BME280;54981;50.206;15.978;2023-02-10T02:15:51;100545.72;;;-5.83;100.00
68169;BME280;54981;50.206;15.978;2023-02-10T02:20:29;100549.03;;;-5.87;100.00
68169;BME280;54981;50.206;15.978;2023-02-10T02:25:09;100553.38;;;-5.86;100.00
68169;BME280;54981;50.206;15.978;2023-02-10T02:38:08;100549.03;;;-6.11;100.00
68169;BME280;54981;50.206;15.978;2023-02-10T02:42:22;100552.63;;;-6.07;100.00
68169;BME280;54981;50.206;15.978;2023-02-10T02:46:33;100570.31;;;-6.19;100.00
68169;BME280;54981;50.206;15.978;2023-02-10T02:51:05;100573.84;;;-6.17;100.00
68169;BME280;54981;50.206;15.978;2023-02-10T02:55:41;100564.03;;;-6.02;100.00
68169;BME280;54981;50.206;15.978;2023-02-10T03:04:13;100563.50;;;-5.93;100.00
68169;BME280;54981;50.206;15.978;2023-02-10T03:08:15;100571.69;;;-6.28;100.00
68169;BME280;54981;50.206;15.978;2023-02-10T03:12:15;100572.34;;;-6.33;100.00
68169;BME280;54981;50.206;15.978;2023-02-10T03:16:16;100575.19;;;-6.27;100.00
68169;BME280;54981;50.206;15.978;2023-02-10T03:20:16;100574.78;;;-6.15;100.00
68169;BME280;54981;50.206;15.978;2023-02-10T03:24:17;100565.13;;;-6.19;100.00
68169;BME280;54981;50.206;15.978;2023-02-10T03:28:17;100580.00;;;-6.36;100.00
68169;BME280;54981;50.206;15.978;2023-02-10T03:32:19;100587.81;;;-6.57;100.00
68169;BME280;54981;50.206;15.978;2023-02-10T03:36:19;100590.44;;;-6.35;100.00
68169;BME280;54981;50.206;15.978;2023-02-10T03:40:19;100587.31;;;-6.26;100.00
68169;BME280;54981;50.206;15.978;2023-02-10T03:44:20;100586.84;;;-6.16;100.00
68169;BME280;54981;50.206;15.978;2023-02-10T03:48:20;100583.84;;;-6.27;100.00
68169;BME280;54981;50.206;15.978;2023-02-10T03:52:21;100594.03;;;-6.54;100.00
68169;BME280;54981;50.206;15.978;2023-02-10T03:56:22;100612.97;;;-6.97;100.00
68169;BME280;54981;50.206;15.978;2023-02-10T04:00:23;100605.03;;;-6.80;100.00
68169;BME280;54981;50.206;15.978;2023-02-10T04:04:23;100611.56;;;-6.68;100.00
68169;BME280;54981;50.206;15.978;2023-02-10T04:08:24;100606.78;;;-6.58;100.00
68169;BME280;54981;50.206;15.978;2023-02-10T04:12:24;100610.19;;;-6.59;100.00
68169;BME280;54981;50.206;15.978;2023-02-10T04:16:25;100608.63;;;-6.56;100.00
68169;BME280;54981;50.206;15.978;2023-02-10T04:20:29;100612.47;;;-6.67;100.00
68169;BME280;54981;50.206;15.978;2023-02-10T04:24:30;100613.09;;;-6.94;100.00
68169;BME280;54981;50.206;15.978;2023-02-10T04:28:30;100618.75;;;-7.02;100.00
68169;BME280;54981;50.206;15.978;2023-02-10T04:32:30;100623.16;;;-7.00;100.00
68169;BME280;54981;50.206;15.978;2023-02-10T04:36:31;100620.69;;;-7.18;100.00
68169;BME280;54981;50.206;15.978;2023-02-10T04:40:31;100625.25;;;-7.32;100.00
68169;BME280;54981;50.206;15.978;2023-02-10T04:44:32;100627.03;;;-7.31;100.00
68169;BME280;54981;50.206;15.978;2023-02-10T04:48:32;100632.41;;;-7.26;100.00
68169;BME280;54981;50.206;15.978;2023-02-10T04:52:34;100634.09;;;-7.26;100.00
68169;BME280;54981;50.206;15.978;2023-02-10T04:56:34;100632.94;;;-7.14;100.00
68169;BME280;54981;50.206;15.978;2023-02-10T05:00:35;100632.78;;;-7.17;100.00
68169;BME280;54981;50.206;15.978;2023-02-10T05:04:35;100627.22;;;-6.86;100.00
68169;BME280;54981;50.206;15.978;2023-02-10T05:08:36;100632.63;;;-7.00;100.00
68169;BME280;54981;50.206;15.978;2023-02-10T05:12:40;100644.63;;;-7.80;100.00
68169;BME280;54981;50.206;15.978;2023-02-10T05:16:41;100653.06;;;-7.84;100.00
68169;BME280;54981;50.206;15.978;2023-02-10T05:20:41;100658.13;;;-7.48;100.00
68169;BME280;54981;50.206;15.978;2023-02-10T05:24:42;100664.28;;;-7.27;100.00
68169;BME280;54981;50.206;15.978;2023-02-10T05:28:42;100673.13;;;-7.22;100.00
68169;BME280;54981;50.206;15.978;2023-02-10T05:32:43;100668.81;;;-7.41;100.00
68169;BME280;54981;50.206;15.978;2023-02-10T05:36:43;100677.22;;;-7.27;100.00
68169;BME280;54981;50.206;15.978;2023-02-10T05:40:44;100674.97;;;-7.39;100.00
68169;BME280;54981;50.206;15.978;2023-02-10T05:44:44;100683.03;;;-7.51;100.00
68169;BME280;54981;50.206;15.978;2023-02-10T05:48:44;100687.22;;;-7.35;100.00
68169;BME280;54981;50.206;15.978;2023-02-10T05:52:45;100691.09;;;-7.44;100.00
68169;BME280;54981;50.206;15.978;2023-02-10T05:56:46;100683.06;;;-7.31;100.00
68169;BME280;54981;50.206;15.978;2023-02-10T06:00:46;100690.97;;;-7.28;100.00
68169;BME280;54981;50.206;15.978;2023-02-10T06:04:47;100697.25;;;-7.23;100.00
68169;BME280;54981;50.206;15.978;2023-02-10T06:08:47;100710.16;;;-7.62;100.00
68169;BME280;54981;50.206;15.978;2023-02-10T06:12:49;100716.59;;;-7.72;100.00
68169;BME280;54981;50.206;15.978;2023-02-10T06:16:49;100724.84;;;-7.61;100.00
68169;BME280;54981;50.206;15.978;2023-02-10T06:20:49;100731.63;;;-7.45;100.00
68169;BME280;54981;50.206;15.978;2023-02-10T06:24:51;100727.63;;;-7.38;100.00
68169;BME280;54981;50.206;15.978;2023-02-10T06:28:51;100729.25;;;-7.40;100.00
68169;BME280;54981;50.206;15.978;2023-02-10T06:32:51;100720.94;;;-7.33;100.00
68169;BME280;54981;50.206;15.978;2023-02-10T06:36:52;100718.69;;;-7.25;100.00
68169;BME280;54981;50.206;15.978;2023-02-10T06:40:52;100721.22;;;-7.27;100.00
68169;BME280;54981;50.206;15.978;2023-02-10T06:44:52;100739.59;;;-7.40;100.00
68169;BME280;54981;50.206;15.978;2023-02-10T06:48:54;100732.50;;;-7.44;100.00
68169;BME280;54981;50.206;15.978;2023-02-10T06:52:54;100735.38;;;-7.38;100.00
68169;BME280;54981;50.206;15.978;2023-02-10T06:56:54;100742.94;;;-7.23;100.00
68169;BME280;54981;50.206;15.978;2023-02-10T07:00:55;100739.06;;;-7.14;100.00
68169;BME280;54981;50.206;15.978;2023-02-10T07:04:55;100747.63;;;-7.15;100.00
68169;BME280;54981;50.206;15.978;2023-02-10T07:08:56;100744.78;;;-7.01;100.00
68169;BME280;54981;50.206;15.978;2023-02-10T07:12:56;100766.19;;;-7.05;100.00
68169;BME280;54981;50.206;15.978;2023-02-10T07:16:57;100776.75;;;-7.01;100.00
68169;BME280;54981;50.206;15.978;2023-02-10T07:20:57;100791.88;;;-6.71;100.00
68169;BME280;54981;50.206;15.978;2023-02-10T07:24:57;100793.22;;;-6.40;100.00
68169;BME280;54981;50.206;15.978;2023-02-10T07:28:58;100787.56;;;-6.11;100.00
68169;BME280;54981;50.206;15.978;2023-02-10T07:32:58;100792.22;;;-5.81;100.00
68169;BME280;54981;50.206;15.978;2023-02-10T07:37:00;100787.41;;;-5.49;100.00
68169;BME280;54981;50.206;15.978;2023-02-10T07:41:00;100783.44;;;-5.17;100.00
68169;BME280;54981;50.206;15.978;2023-02-10T07:45:01;100767.03;;;-4.69;100.00
68169;BME280;54981;50.206;15.978;2023-02-10T07:49:01;100774.88;;;-4.68;100.00
68169;BME280;54981;50.206;15.978;2023-02-10T07:53:02;100780.44;;;-4.59;100.00
68169;BME280;54981;50.206;15.978;2023-02-10T07:57:02;100766.34;;;-3.89;100.00
68169;BME280;54981;50.206;15.978;2023-02-10T08:01:09;100771.91;;;-3.49;100.00
68169;BME280;54981;50.206;15.978;2023-02-10T08:05:10;100776.25;;;-3.50;100.00
68169;BME280;54981;50.206;15.978;2023-02-10T08:09:11;100796.47;;;-3.14;100.00
68169;BME280;54981;50.206;15.978;2023-02-10T08:13:11;100802.47;;;-3.16;100.00
68169;BME280;54981;50.206;15.978;2023-02-10T08:17:11;100811.59;;;-3.02;100.00
68169;BME280;54981;50.206;15.978;2023-02-10T08:21:12;100810.88;;;-2.96;100.00
68169;BME280;54981;50.206;15.978;2023-02-10T08:25:12;100816.66;;;-3.07;100.00
68169;BME280;54981;50.206;15.978;2023-02-10T08:29:13;100821.13;;;-3.31;100.00
68169;BME280;54981;50.206;15.978;2023-02-10T08:33:13;100813.47;;;-3.25;100.00
68169;BME280;54981;50.206;15.978;2023-02-10T08:37:15;100816.59;;;-3.08;100.00
68169;BME280;54981;50.206;15.978;2023-02-10T08:41:16;100805.41;;;-2.75;100.00
68169;BME280;54981;50.206;15.978;2023-02-10T08:45:17;100810.63;;;-2.75;100.00
68169;BME280;54981;50.206;15.978;2023-02-10T08:49:18;100820.94;;;-3.09;100.00
68169;BME280;54981;50.206;15.978;2023-02-10T08:53:19;100822.94;;;-2.70;100.00
68169;BME280;54981;50.206;15.978;2023-02-10T08:57:20;100827.38;;;-2.96;100.00
68169;BME280;54981;50.206;15.978;2023-02-10T09:01:23;100822.38;;;-3.18;100.00
68169;BME280;54981;50.206;15.978;2023-02-10T09:05:26;100825.25;;;-3.09;100.00
68169;BME280;54981;50.206;15.978;2023-02-10T09:09:26;100824.75;;;-2.97;100.00
68169;BME280;54981;50.206;15.978;2023-02-10T09:13:27;100823.97;;;-2.95;100.00
68169;BME280;54981;50.206;15.978;2023-02-10T09:17:27;100816.91;;;-2.69;100.00
68169;BME280;54981;50.206;15.978;2023-02-10T09:21:28;100826.97;;;-2.81;100.00
68169;BME280;54981;50.206;15.978;2023-02-10T09:25:29;100818.91;;;-2.28;100.00
68169;BME280;54981;50.206;15.978;2023-02-10T09:29:29;100813.44;;;-2.38;100.00
68169;BME280;54981;50.206;15.978;2023-02-10T09:33:30;100824.50;;;-2.46;100.00
68169;BME280;54981;50.206;15.978;2023-02-10T09:37:30;100830.22;;;-2.60;100.00
68169;BME280;54981;50.206;15.978;2023-02-10T09:45:37;100833.84;;;-2.53;100.00
68169;BME280;54981;50.206;15.978;2023-02-10T09:49:59;100844.28;;;-2.53;100.00
68169;BME280;54981;50.206;15.978;2023-02-10T09:54:10;100837.59;;;-2.45;100.00
68169;BME280;54981;50.206;15.978;2023-02-10T09:58:23;100845.44;;;-2.43;100.00
68169;BME280;54981;50.206;15.978;2023-02-10T10:02:47;100851.91;;;-2.30;100.00
68169;BME280;54981;50.206;15.978;2023-02-10T10:07:15;100847.94;;;-2.16;100.00
68169;BME280;54981;50.206;15.978;2023-02-10T10:11:26;100849.03;;;-2.08;100.00
68169;BME280;54981;50.206;15.978;2023-02-10T10:15:37;100856.50;;;-1.88;100.00
68169;BME280;54981;50.206;15.978;2023-02-10T10:20:25;100855.31;;;-1.68;100.00
68169;BME280;54981;50.206;15.978;2023-02-10T10:25:11;100852.94;;;-1.21;100.00
68169;BME280;54981;50.206;15.978;2023-02-10T10:29:20;100860.41;;;-1.71;100.00
68169;BME280;54981;50.206;15.978;2023-02-10T10:33:31;100866.81;;;-1.60;100.00
68169;BME280;54981;50.206;15.978;2023-02-10T10:37:34;100847.50;;;-1.30;100.00
68169;BME280;54981;50.206;15.978;2023-02-10T10:41:36;100833.88;;;-0.77;100.00
68169;BME280;54981;50.206;15.978;2023-02-10T10:45:46;100838.53;;;-0.64;100.00
68169;BME280;54981;50.206;15.978;2023-02-10T10:49:47;100836.59;;;-0.73;100.00
68169;BME280;54981;50.206;15.978;2023-02-10T10:53:53;100822.06;;;-0.14;100.00
68169;BME280;54981;50.206;15.978;2023-02-10T10:57:55;100830.00;;;-0.55;100.00
68169;BME280;54981;50.206;15.978;2023-02-10T11:01:56;100828.66;;;0.12;100.00
68169;BME280;54981;50.206;15.978;2023-02-10T11:09:57;100825.56;;;-0.12;100.00
68169;BME280;54981;50.206;15.978;2023-02-10T11:13:58;100831.41;;;-0.29;100.00
68169;BME280;54981;50.206;15.978;2023-02-10T11:18:00;100835.31;;;0.45;100.00
68169;BME280;54981;50.206;15.978;2023-02-10T11:22:01;100828.41;;;-0.47;100.00
68169;BME280;54981;50.206;15.978;2023-02-10T11:26:05;100827.59;;;-0.45;100.00
68169;BME280;54981;50.206;15.978;2023-02-10T11:30:33;100834.22;;;-0.62;100.00
68169;BME280;54981;50.206;15.978;2023-02-10T11:34:43;100826.56;;;-0.51;100.00
68169;BME280;54981;50.206;15.978;2023-02-10T11:38:45;100832.38;;;-0.24;100.00
68169;BME280;54981;50.206;15.978;2023-02-10T11:42:51;100823.13;;;-0.03;100.00
68169;BME280;54981;50.206;15.978;2023-02-10T11:46:57;100827.72;;;-0.37;100.00
68169;BME280;54981;50.206;15.978;2023-02-10T11:51:20;100815.00;;;-0.18;100.00
68169;BME280;54981;50.206;15.978;2023-02-10T12:04:01;100809.31;;;-0.43;100.00
68169;BME280;54981;50.206;15.978;2023-02-10T12:08:10;100809.91;;;-0.56;100.00
68169;BME280;54981;50.206;15.978;2023-02-10T12:51:42;100773.28;;;1.03;100.00
68169;BME280;54981;50.206;15.978;2023-02-10T12:55:56;100774.09;;;0.99;100.00
68169;BME280;54981;50.206;15.978;2023-02-10T13:00:06;100771.38;;;0.32;100.00
68169;BME280;54981;50.206;15.978;2023-02-10T13:04:25;100773.63;;;0.67;100.00
68169;BME280;54981;50.206;15.978;2023-02-10T13:08:34;100772.28;;;0.95;100.00
68169;BME280;54981;50.206;15.978;2023-02-10T13:12:39;100763.25;;;0.73;100.00
68169;BME280;54981;50.206;15.978;2023-02-10T13:16:43;100769.31;;;1.36;100.00
68169;BME280;54981;50.206;15.978;2023-02-10T13:21:06;100772.09;;;0.80;100.00
68169;BME280;54981;50.206;15.978;2023-02-10T13:29:27;100769.84;;;1.11;100.00
68169;BME280;54981;50.206;15.978;2023-02-10T13:37:55;100786.88;;;0.75;100.00
68169;BME280;54981;50.206;15.978;2023-02-10T13:46:46;100773.28;;;1.03;100.00
68169;BME280;54981;50.206;15.978;2023-02-10T13:50:51;100779.13;;;0.84;100.00
68169;BME280;54981;50.206;15.978;2023-02-10T13:55:24;100780.00;;;0.83;100.00
68169;BME280;54981;50.206;15.978;2023-02-10T13:59:27;100791.47;;;0.90;100.00
68169;BME280;54981;50.206;15.978;2023-02-10T14:03:32;100786.41;;;1.03;100.00
68169;BME280;54981;50.206;15.978;2023-02-10T14:07:34;100791.50;;;0.93;100.00
68169;BME280;54981;50.206;15.978;2023-02-10T14:11:39;100795.38;;;0.58;100.00
68169;BME280;54981;50.206;15.978;2023-02-10T14:15:40;100791.06;;;0.63;100.00
68169;BME280;54981;50.206;15.978;2023-02-10T14:19:43;100785.13;;;0.77;100.00
68169;BME280;54981;50.206;15.978;2023-02-10T14:23:53;100790.59;;;0.89;100.00
68169;BME280;54981;50.206;15.978;2023-02-10T14:27:55;100794.03;;;0.88;100.00
68169;BME280;54981;50.206;15.978;2023-02-10T14:31:58;100798.25;;;0.77;100.00
68169;BME280;54981;50.206;15.978;2023-02-10T14:36:07;100782.78;;;0.95;100.00
68169;BME280;54981;50.206;15.978;2023-02-10T14:40:17;100771.47;;;0.99;100.00
68169;BME280;54981;50.206;15.978;2023-02-10T14:44:47;100786.66;;;0.62;100.00
68169;BME280;54981;50.206;15.978;2023-02-10T14:52:59;100789.94;;;0.48;100.00
68169;BME280;54981;50.206;15.978;2023-02-10T14:57:01;100796.94;;;0.47;100.00
68169;BME280;54981;50.206;15.978;2023-02-10T15:01:13;100791.66;;;0.44;100.00
68169;BME280;54981;50.206;15.978;2023-02-10T15:05:18;100799.38;;;0.36;100.00
68169;BME280;54981;50.206;15.978;2023-02-10T15:09:23;100799.38;;;0.36;100.00
68169;BME280;54981;50.206;15.978;2023-02-10T15:13:32;100802.00;;;0.38;100.00
68169;BME280;54981;50.206;15.978;2023-02-10T15:17:36;100800.25;;;0.37;100.00
68169;BME280;54981;50.206;15.978;2023-02-10T15:21:38;100805.34;;;0.28;100.00
68169;BME280;54981;50.206;15.978;2023-02-10T15:25:39;100806.00;;;0.16;100.00
68169;BME280;54981;50.206;15.978;2023-02-10T15:29:39;100809.38;;;0.09;100.00
68169;BME280;54981;50.206;15.978;2023-02-10T15:37:52;100807.50;;;0.00;100.00
68169;BME280;54981;50.206;15.978;2023-02-10T15:41:58;100807.41;;;-0.03;100.00
68169;BME280;54981;50.206;15.978;2023-02-10T15:46:17;100809.94;;;-0.09;100.00
68169;BME280;54981;50.206;15.978;2023-02-10T15:50:18;100813.31;;;-0.15;100.00
68169;BME280;54981;50.206;15.978;2023-02-10T15:54:23;100812.09;;;0.13;100.00
68169;BME280;54981;50.206;15.978;2023-02-10T15:58:25;100801.81;;;0.26;100.00
68169;BME280;54981;50.206;15.978;2023-02-10T16:02:25;100792.56;;;0.48;100.00
68169;BME280;54981;50.206;15.978;2023-02-10T16:06:26;100789.78;;;0.37;100.00
68169;BME280;54981;50.206;15.978;2023-02-10T16:10:26;100790.53;;;0.31;100.00
68169;BME280;54981;50.206;15.978;2023-02-10T16:14:27;100793.47;;;0.48;100.00
68169;BME280;54981;50.206;15.978;2023-02-10T16:18:28;100783.50;;;0.27;100.00
68169;BME280;54981;50.206;15.978;2023-02-10T16:22:29;100796.28;;;0.09;100.00
68169;BME280;54981;50.206;15.978;2023-02-10T16:26:29;100794.34;;;-0.03;100.00
68169;BME280;54981;50.206;15.978;2023-02-10T16:30:30;100791.63;;;-0.08;100.00
68169;BME280;54981;50.206;15.978;2023-02-10T16:34:32;100782.59;;;-0.25;100.00
68169;BME280;54981;50.206;15.978;2023-02-10T16:38:32;100792.19;;;-0.26;100.00
68169;BME280;54981;50.206;15.978;2023-02-10T16:42:34;100792.75;;;-0.42;100.00
68169;BME280;54981;50.206;15.978;2023-02-10T16:46:34;100790.81;;;-0.52;100.00
68169;BME280;54981;50.206;15.978;2023-02-10T16:50:37;100795.22;;;-0.50;100.00
68169;BME280;54981;50.206;15.978;2023-02-10T16:54:37;100792.75;;;-0.42;100.00
68169;BME280;54981;50.206;15.978;2023-02-10T16:58:37;100794.28;;;-0.52;100.00
68169;BME280;54981;50.206;15.978;2023-02-10T17:02:38;100801.09;;;-0.61;100.00
68169;BME280;54981;50.206;15.978;2023-02-10T17:06:45;100807.03;;;-0.69;100.00
68169;BME280;54981;50.206;15.978;2023-02-10T17:10:46;100811.28;;;-0.74;100.00
68169;BME280;54981;50.206;15.978;2023-02-10T17:14:47;100811.13;;;-0.81;100.00
68169;BME280;54981;50.206;15.978;2023-02-10T17:18:47;100822.41;;;-0.84;100.00
68169;BME280;54981;50.206;15.978;2023-02-10T17:22:47;100818.06;;;-0.82;100.00
68169;BME280;54981;50.206;15.978;2023-02-10T17:26:48;100811.91;;;-0.86;100.00
68169;BME280;54981;50.206;15.978;2023-02-10T17:30:50;100815.09;;;-1.00;100.00
68169;BME280;54981;50.206;15.978;2023-02-10T17:34:51;100816.84;;;-0.99;100.00
68169;BME280;54981;50.206;15.978;2023-02-10T17:38:52;100822.28;;;-0.90;100.00
68169;BME280;54981;50.206;15.978;2023-02-10T17:42:53;100814.38;;;-0.93;100.00
68169;BME280;54981;50.206;15.978;2023-02-10T17:46:55;100806.44;;;-0.96;100.00
68169;BME280;54981;50.206;15.978;2023-02-10T17:51:02;100810.91;;;-0.92;100.00
68169;BME280;54981;50.206;15.978;2023-02-10T17:55:03;100811.97;;;-0.84;100.00
68169;BME280;54981;50.206;15.978;2023-02-10T17:59:04;100811.19;;;-0.78;100.00
68169;BME280;54981;50.206;15.978;2023-02-10T18:03:04;100804.63;;;-0.58;100.00
68169;BME280;54981;50.206;15.978;2023-02-10T18:07:05;100800.78;;;-0.33;100.00
68169;BME280;54981;50.206;15.978;2023-02-10T18:11:05;100796.47;;;-0.29;100.00
68169;BME280;54981;50.206;15.978;2023-02-10T18:15:06;100793.25;;;-0.16;100.00
68169;BME280;54981;50.206;15.978;2023-02-10T18:19:06;100796.31;;;0.10;100.00
68169;BME280;54981;50.206;15.978;2023-02-10T18:23:07;100781.72;;;-0.26;100.00
68169;BME280;54981;50.206;15.978;2023-02-10T18:27:08;100779.66;;;-0.42;100.00
68169;BME280;54981;50.206;15.978;2023-02-10T18:31:09;100783.03;;;-0.02;100.00
68169;BME280;54981;50.206;15.978;2023-02-10T18:35:14;100777.25;;;0.17;100.00
68169;BME280;54981;50.206;15.978;2023-02-10T18:39:14;100784.09;;;0.11;100.00
68169;BME280;54981;50.206;15.978;2023-02-10T18:43:14;100781.22;;;-0.05;100.00
68169;BME280;54981;50.206;15.978;2023-02-10T18:47:15;100787.28;;;-0.07;100.00
68169;BME280;54981;50.206;15.978;2023-02-10T18:51:16;100780.41;;;-0.02;100.00
68169;BME280;54981;50.206;15.978;2023-02-10T18:55:16;100796.63;;;-0.20;100.00
68169;BME280;54981;50.206;15.978;2023-02-10T18:59:17;100786.31;;;-0.12;100.00
68169;BME280;54981;50.206;15.978;2023-02-10T19:03:20;100788.03;;;-0.14;100.00
68169;BME280;54981;50.206;15.978;2023-02-10T19:07:20;100795.19;;;-0.04;100.00
68169;BME280;54981;50.206;15.978;2023-02-10T19:11:20;100800.88;;;-0.27;100.00
68169;BME280;54981;50.206;15.978;2023-02-10T19:15:21;100798.69;;;-0.04;100.00
68169;BME280;54981;50.206;15.978;2023-02-10T19:19:21;100786.31;;;-0.12;100.00
68169;BME280;54981;50.206;15.978;2023-02-10T19:23:21;100790.88;;;-0.02;100.00
68169;BME280;54981;50.206;15.978;2023-02-10T19:27:22;100782.09;;;-0.04;100.00
68169;BME280;54981;50.206;15.978;2023-02-10T19:31:22;100776.75;;;-0.10;100.00
68169;BME280;54981;50.206;15.978;2023-02-10T19:35:23;100776.66;;;-0.15;100.00
68169;BME280;54981;50.206;15.978;2023-02-10T19:39:23;100771.97;;;-0.33;100.00
68169;BME280;54981;50.206;15.978;2023-02-10T19:43:23;100772.69;;;-0.43;100.00
68169;BME280;54981;50.206;15.978;2023-02-10T19:47:24;100771.81;;;-0.42;100.00
68169;BME280;54981;50.206;15.978;2023-02-10T19:51:24;100766.84;;;-0.28;100.00
68169;BME280;54981;50.206;15.978;2023-02-10T19:55:25;100762.63;;;-0.20;100.00
68169;BME280;54981;50.206;15.978;2023-02-10T19:59:26;100758.72;;;-0.42;100.00
68169;BME280;54981;50.206;15.978;2023-02-10T20:03:27;100758.72;;;0.07;100.00
68169;BME280;54981;50.206;15.978;2023-02-10T20:07:27;100752.75;;;0.15;100.00
68169;BME280;54981;50.206;15.978;2023-02-10T20:11:28;100753.75;;;0.22;100.00
68169;BME280;54981;50.206;15.978;2023-02-10T20:15:28;100741.31;;;0.12;100.00
68169;BME280;54981;50.206;15.978;2023-02-10T20:19:29;100735.94;;;0.01;100.00
68169;BME280;54981;50.206;15.978;2023-02-10T20:23:30;100737.22;;;-0.26;100.00
68169;BME280;54981;50.206;15.978;2023-02-10T20:27:31;100742.28;;;-0.35;100.00
68169;BME280;54981;50.206;15.978;2023-02-10T20:31:31;100743.06;;;-0.39;100.00
68169;BME280;54981;50.206;15.978;2023-02-10T20:35:36;100736.63;;;-0.09;100.00
68169;BME280;54981;50.206;15.978;2023-02-10T20:39:37;100741.75;;;-0.15;100.00
68169;BME280;54981;50.206;15.978;2023-02-10T20:43:37;100740.66;;;-0.28;100.00
68169;BME280;54981;50.206;15.978;2023-02-10T20:47:38;100738.53;;;-0.49;100.00
68169;BME280;54981;50.206;15.978;2023-02-10T20:51:38;100739.25;;;-0.56;100.00
68169;BME280;54981;50.206;15.978;2023-02-10T20:55:39;100732.91;;;-0.24;100.00
68169;BME280;54981;50.206;15.978;2023-02-10T20:59:40;100727.00;;;-0.12;100.00
68169;BME280;54981;50.206;15.978;2023-02-10T21:03:40;100715.94;;;0.06;100.00
68169;BME280;54981;50.206;15.978;2023-02-10T21:07:40;100707.59;;;-0.23;100.00
68169;BME280;54981;50.206;15.978;2023-02-10T21:11:41;100696.25;;;-0.24;100.00
68169;BME280;54981;50.206;15.978;2023-02-10T21:15:41;100705.13;;;-1.07;100.00
68169;BME280;54981;50.206;15.978;2023-02-10T21:19:41;100690.66;;;-0.91;100.00
68169;BME280;54981;50.206;15.978;2023-02-10T21:23:42;100688.78;;;-0.51;100.00
68169;BME280;54981;50.206;15.978;2023-02-10T21:27:42;100676.72;;;-0.43;100.00
68169;BME280;54981;50.206;15.978;2023-02-10T21:31:43;100673.69;;;-0.66;100.00
68169;BME280;54981;50.206;15.978;2023-02-10T21:35:44;100663.50;;;-0.97;100.00
68169;BME280;54981;50.206;15.978;2023-02-10T21:39:45;100668.97;;;-0.85;100.00
68169;BME280;54981;50.206;15.978;2023-02-10T21:43:46;100684.13;;;-1.13;100.00
68169;BME280;54981;50.206;15.978;2023-02-10T21:47:46;100676.47;;;-1.44;100.00
68169;BME280;54981;50.206;15.978;2023-02-10T21:51:47;100665.28;;;-1.39;100.00
68169;BME280;54981;50.206;15.978;2023-02-10T21:55:47;100674.56;;;-1.53;100.00
68169;BME280;54981;50.206;15.978;2023-02-10T21:59:47;100691.59;;;-1.69;100.00
68169;BME280;54981;50.206;15.978;2023-02-10T22:03:48;100672.41;;;-1.71;100.00
68169;BME280;54981;50.206;15.978;2023-02-10T22:07:48;100675.31;;;-1.97;100.00
68169;BME280;54981;50.206;15.978;2023-02-10T22:11:48;100676.13;;;-1.98;100.00
68169;BME280;54981;50.206;15.978;2023-02-10T22:15:52;100653.31;;;-2.06;100.00
68169;BME280;54981;50.206;15.978;2023-02-10T22:19:53;100650.63;;;-1.72;100.00